createdAt,value
2018-07-17T00:00:24.109Z,13.57
2018-07-17T00:02:53.857Z,13.83
2018-07-17T00:05:23.726Z,13.33
2018-07-17T00:07:53.597Z,14.00
2018-07-17T00:10:23.448Z,13.17
2018-07-17T00:12:53.314Z,13.60
2018-07-17T00:15:23.124Z,13.20
2018-07-17T00:17:52.936Z,12.00
2018-07-17T00:20:22.820Z,12.60
2018-07-17T00:22:52.612Z,14.90
2018-07-17T00:25:22.454Z,12.97
2018-07-17T00:27:52.283Z,13.33
2018-07-17T00:30:22.089Z,12.17
2018-07-17T00:32:51.875Z,12.70
2018-07-17T00:35:21.740Z,13.07
2018-07-17T00:37:51.608Z,12.10
2018-07-17T00:40:21.469Z,12.17
2018-07-17T00:42:51.273Z,12.17
2018-07-17T00:45:21.111Z,11.17
2018-07-17T00:47:50.913Z,12.33
2018-07-17T00:50:20.760Z,11.70
2018-07-17T00:52:50.599Z,11.73
2018-07-17T00:55:20.372Z,12.23
2018-07-17T00:57:50.185Z,11.00
2018-07-17T01:00:20.177Z,10.90
2018-07-17T01:02:55.049Z,10.40
2018-07-17T01:05:29.972Z,10.20
2018-07-17T01:08:04.935Z,11.00
2018-07-17T01:10:39.844Z,11.67
2018-07-17T01:13:13.570Z,10.27
2018-07-17T01:15:43.416Z,11.00
2018-07-17T01:18:13.220Z,10.47
2018-07-17T01:20:43.004Z,11.80
2018-07-17T01:23:12.831Z,13.57
2018-07-17T01:25:42.687Z,10.90
2018-07-17T01:28:12.512Z,11.53
2018-07-17T01:30:42.288Z,10.83
2018-07-17T01:33:12.111Z,10.47
2018-07-17T01:35:41.930Z,11.03
2018-07-17T01:38:11.725Z,10.90
2018-07-17T01:40:41.616Z,11.43
2018-07-17T01:43:11.449Z,11.90
2018-07-17T01:45:41.284Z,12.40
2018-07-17T01:48:11.084Z,11.93
2018-07-17T01:50:40.907Z,11.83
2018-07-17T01:53:10.724Z,11.60
2018-07-17T01:55:40.568Z,11.80
2018-07-17T01:58:10.450Z,11.77
2018-07-17T02:00:40.304Z,11.73
2018-07-17T02:03:10.147Z,11.53
2018-07-17T02:05:39.976Z,12.77
2018-07-17T02:08:09.755Z,12.30
2018-07-17T02:10:39.561Z,12.53
2018-07-17T02:13:09.352Z,11.90
2018-07-17T02:15:39.207Z,18.17
2018-07-17T02:18:08.995Z,12.93
2018-07-17T02:20:38.808Z,16.80
2018-07-17T02:23:08.606Z,16.33
2018-07-17T02:25:38.419Z,13.73
2018-07-17T02:28:08.224Z,13.93
2018-07-17T02:30:38.168Z,16.03
2018-07-17T02:33:07.968Z,16.63
2018-07-17T02:35:37.796Z,12.23
2018-07-17T02:38:07.620Z,16.50
2018-07-17T02:40:37.442Z,13.37
2018-07-17T02:43:07.346Z,12.03
2018-07-17T02:45:37.140Z,13.30
2018-07-17T02:48:06.988Z,12.57
2018-07-17T02:50:36.817Z,11.33
2018-07-17T02:53:06.697Z,11.30
2018-07-17T02:55:36.563Z,11.50
2018-07-17T02:58:06.453Z,11.07
2018-07-17T03:00:36.374Z,14.23
2018-07-17T03:03:06.232Z,13.23
2018-07-17T03:05:36.065Z,11.33
2018-07-17T03:08:05.848Z,11.73
2018-07-17T03:10:35.708Z,11.70
2018-07-17T03:13:05.508Z,13.83
2018-07-17T03:15:35.391Z,12.43
2018-07-17T03:18:05.256Z,11.70
2018-07-17T03:20:35.076Z,12.57
2018-07-17T03:23:04.884Z,12.13
2018-07-17T03:25:34.742Z,12.03
2018-07-17T03:28:04.565Z,11.57
2018-07-17T03:30:34.388Z,13.50
2018-07-17T03:33:04.292Z,11.27
2018-07-17T03:35:34.116Z,12.70
2018-07-17T03:38:03.964Z,12.03
2018-07-17T03:40:33.852Z,11.97
2018-07-17T03:43:03.712Z,11.97
2018-07-17T03:45:33.524Z,13.53
2018-07-17T03:48:03.311Z,13.90
2018-07-17T03:50:33.297Z,14.03
2018-07-17T03:53:03.104Z,13.73
2018-07-17T03:55:32.933Z,13.37
2018-07-17T03:58:02.818Z,14.43
2018-07-17T04:00:32.608Z,15.43
2018-07-17T04:03:02.433Z,14.27
2018-07-17T04:05:32.287Z,13.83
2018-07-17T04:08:02.096Z,14.40
2018-07-17T04:10:31.881Z,13.30
2018-07-17T04:13:01.691Z,13.43
2018-07-17T04:15:31.496Z,13.03
2018-07-17T04:18:01.323Z,13.33
2018-07-17T04:20:31.185Z,13.63
2018-07-17T04:23:01.008Z,13.33
2018-07-17T04:25:30.813Z,14.13
2018-07-17T04:28:00.665Z,22.50
2018-07-17T04:30:30.490Z,19.63
2018-07-17T04:33:00.321Z,15.93
2018-07-17T04:35:30.140Z,13.03
2018-07-17T04:37:59.972Z,18.97
2018-07-17T04:40:29.809Z,13.37
2018-07-17T04:42:59.671Z,12.80
2018-07-17T04:45:29.501Z,16.80
2018-07-17T04:47:59.320Z,11.63
2018-07-17T04:50:29.217Z,17.33
2018-07-17T04:52:58.988Z,13.23
2018-07-17T04:55:28.868Z,14.23
2018-07-17T04:57:58.802Z,16.17
2018-07-17T05:00:28.624Z,16.00
2018-07-17T05:02:58.429Z,15.13
2018-07-17T05:05:28.288Z,16.37
2018-07-17T05:07:58.065Z,14.10
2018-07-17T05:10:27.944Z,13.63
2018-07-17T05:12:57.841Z,14.43
2018-07-17T05:15:27.636Z,12.50
2018-07-17T05:17:57.432Z,14.73
2018-07-17T05:20:27.418Z,16.37
2018-07-17T05:22:57.450Z,12.27
2018-07-17T05:25:27.196Z,13.00
2018-07-17T05:27:57.040Z,14.57
2018-07-17T05:30:26.828Z,12.40
2018-07-17T05:32:56.668Z,14.77
2018-07-17T05:35:26.571Z,15.73
2018-07-17T05:37:56.476Z,15.63
2018-07-17T05:40:26.329Z,16.47
2018-07-17T05:42:56.318Z,18.03
2018-07-17T05:45:26.214Z,18.77
2018-07-17T05:47:56.056Z,14.67
2018-07-17T05:50:25.924Z,14.17
2018-07-17T05:52:55.796Z,17.30
2018-07-17T05:55:25.712Z,15.87
2018-07-17T05:57:55.513Z,23.87
2018-07-17T06:00:25.497Z,16.67
2018-07-17T06:02:55.320Z,14.03
2018-07-17T06:05:25.172Z,22.87
2018-07-17T06:07:54.967Z,15.60
2018-07-17T06:10:24.930Z,15.93
2018-07-17T06:12:54.715Z,10.70
2018-07-17T06:15:24.569Z,10.83
2018-07-17T06:17:54.448Z,10.40
2018-07-17T06:20:24.340Z,14.30
2018-07-17T06:22:54.180Z,13.83
2018-07-17T06:25:24.176Z,13.23
2018-07-17T06:27:53.995Z,10.83
2018-07-17T06:30:23.900Z,10.47
2018-07-17T06:32:53.845Z,25.40
2018-07-17T06:35:23.728Z,13.50
2018-07-17T06:37:53.587Z,12.80
2018-07-17T06:40:23.460Z,10.80
2018-07-17T06:42:53.364Z,9.93
2018-07-17T06:45:23.216Z,13.60
2018-07-17T06:47:53.080Z,10.67
2018-07-17T06:50:23.016Z,11.53
2018-07-17T06:52:52.985Z,38.83
2018-07-17T06:55:22.811Z,12.53
2018-07-17T06:57:52.980Z,12.23
2018-07-17T07:00:22.870Z,10.93
2018-07-17T07:02:52.724Z,10.80
2018-07-17T07:05:23.582Z,11.57
2018-07-17T07:07:53.420Z,20.80
2018-07-17T07:10:23.215Z,14.50
2018-07-17T07:12:53.170Z,14.10
2018-07-17T07:15:23.089Z,9.83
2018-07-17T07:17:53.144Z,12.40
2018-07-17T07:20:23.020Z,9.77
2018-07-17T07:22:52.964Z,11.17
2018-07-17T07:25:24.129Z,11.83
2018-07-17T07:27:54.070Z,18.33
2018-07-17T07:30:24.020Z,10.13
2018-07-17T07:32:53.892Z,9.93
2018-07-17T07:35:23.845Z,9.73
2018-07-17T07:37:53.776Z,8.90
2018-07-17T07:40:23.613Z,8.97
2018-07-17T07:42:53.553Z,26.07
2018-07-17T07:45:23.365Z,8.33
2018-07-17T07:47:53.746Z,9.03
2018-07-17T07:50:23.768Z,8.77
2018-07-17T07:52:54.488Z,9.03
2018-07-17T07:55:24.395Z,8.83
2018-07-17T07:57:54.496Z,16.47
2018-07-17T08:00:24.435Z,10.07
2018-07-17T08:02:54.267Z,8.87
2018-07-17T08:05:24.130Z,18.67
2018-07-17T08:07:54.021Z,8.23
2018-07-17T08:10:23.831Z,11.93
2018-07-17T08:12:53.604Z,8.50
2018-07-17T08:15:23.494Z,10.50
2018-07-17T08:17:53.399Z,17.20
2018-07-17T08:20:23.359Z,15.03
2018-07-17T08:22:53.208Z,22.40
2018-07-17T08:25:22.985Z,9.53
2018-07-17T08:27:53.438Z,9.67
2018-07-17T08:30:23.759Z,9.37
2018-07-17T08:32:53.597Z,13.20
2018-07-17T08:35:23.423Z,15.30
2018-07-17T08:37:53.309Z,19.13
2018-07-17T08:40:23.312Z,10.33
2018-07-17T08:42:53.304Z,15.53
2018-07-17T08:45:23.054Z,12.57
2018-07-17T08:47:52.895Z,9.07
2018-07-17T08:50:22.772Z,14.10
2018-07-17T08:52:53.536Z,15.43
2018-07-17T08:55:23.976Z,17.03
2018-07-17T08:57:53.923Z,10.77
2018-07-17T09:00:23.870Z,10.40
2018-07-17T09:02:53.675Z,10.13
2018-07-17T09:05:23.540Z,9.30
2018-07-17T09:07:53.300Z,9.40
2018-07-17T09:10:23.055Z,9.27
2018-07-17T09:12:52.867Z,10.33
2018-07-17T09:15:22.857Z,10.50
2018-07-17T09:17:52.590Z,9.10
2018-07-17T09:20:22.451Z,10.17
2018-07-17T09:22:52.208Z,10.87
2018-07-17T09:25:22.047Z,9.57
2018-07-17T09:27:51.812Z,9.77
2018-07-17T09:30:21.619Z,14.40
2018-07-17T09:32:51.342Z,57.77
2018-07-17T09:35:21.127Z,18.87
2018-07-17T09:37:50.934Z,24.37
2018-07-17T09:40:21.619Z,13.57
2018-07-17T09:42:51.548Z,10.27
2018-07-17T09:45:21.306Z,12.37
2018-07-17T09:47:51.211Z,10.97
2018-07-17T09:50:21.839Z,12.83
2018-07-17T09:52:51.639Z,4.77
2018-07-17T09:55:21.527Z,3.90
2018-07-17T09:57:51.353Z,6.73
2018-07-17T10:00:26.027Z,6.93
2018-07-17T10:02:56.009Z,7.83
2018-07-17T10:05:25.795Z,15.43
2018-07-17T10:07:55.620Z,10.77
2018-07-17T10:10:25.389Z,8.13
2018-07-17T10:12:55.216Z,12.17
2018-07-17T10:15:24.948Z,8.07
2018-07-17T10:17:54.709Z,6.00
2018-07-17T10:20:24.654Z,10.87
2018-07-17T10:22:54.331Z,8.37
2018-07-17T10:25:24.200Z,7.33
2018-07-17T10:27:53.972Z,10.07
2018-07-17T10:30:23.783Z,7.00
2018-07-17T10:32:53.615Z,9.03
2018-07-17T10:35:23.487Z,5.00
2018-07-17T10:37:53.388Z,7.00
2018-07-17T10:40:23.510Z,6.57
2018-07-17T10:42:53.324Z,7.10
2018-07-17T10:45:23.240Z,5.63
2018-07-17T10:47:53.175Z,4.93
2018-07-17T10:50:23.027Z,6.03
2018-07-17T10:52:52.927Z,7.37
2018-07-17T10:55:22.710Z,5.93
2018-07-17T10:57:52.579Z,5.17
2018-07-17T11:00:22.322Z,4.20
2018-07-17T11:02:52.105Z,4.33
2018-07-17T11:05:21.997Z,4.20
2018-07-17T11:07:51.775Z,5.37
2018-07-17T11:10:21.655Z,7.83
2018-07-17T11:12:51.467Z,5.10
2018-07-17T11:15:21.331Z,8.53
2018-07-17T11:17:51.131Z,4.17
2018-07-17T11:20:20.999Z,5.17
2018-07-17T11:22:50.830Z,7.90
2018-07-17T11:25:20.664Z,11.43
2018-07-17T11:27:50.606Z,8.30
2018-07-17T11:30:20.419Z,6.07
2018-07-17T11:32:50.242Z,6.30
2018-07-17T11:35:20.127Z,7.33
2018-07-17T11:37:50.025Z,8.47
2018-07-17T11:40:19.882Z,4.80
2018-07-17T11:42:49.675Z,9.60
2018-07-17T11:45:19.536Z,6.57
2018-07-17T11:47:49.466Z,9.03
2018-07-17T11:50:19.227Z,11.77
2018-07-17T11:52:49.196Z,5.70
2018-07-17T11:55:18.955Z,5.23
2018-07-17T11:57:48.811Z,3.50
2018-07-17T12:00:18.629Z,7.00
2018-07-17T12:02:48.413Z,4.03
2018-07-17T12:05:18.319Z,3.33
2018-07-17T12:07:48.160Z,4.03
2018-07-17T12:10:18.017Z,3.87
2018-07-17T12:12:48.104Z,4.30
2018-07-17T12:15:17.916Z,7.73
2018-07-17T12:17:47.848Z,9.47
2018-07-17T12:20:17.718Z,6.27
2018-07-17T12:22:47.590Z,3.63
2018-07-17T12:25:17.451Z,5.10
2018-07-17T12:27:47.377Z,4.63
2018-07-17T12:30:17.191Z,5.33
2018-07-17T12:32:47.052Z,3.80
2018-07-17T12:35:16.786Z,4.50
2018-07-17T12:37:46.572Z,3.97
2018-07-17T12:40:16.411Z,9.27
2018-07-17T12:42:46.331Z,16.47
2018-07-17T12:45:16.284Z,8.83
2018-07-17T12:47:46.088Z,6.90
2018-07-17T12:50:15.979Z,7.17
2018-07-17T12:52:45.806Z,7.80
2018-07-17T12:55:15.608Z,5.00
2018-07-17T12:57:45.525Z,7.47
2018-07-17T13:00:15.387Z,5.20
2018-07-17T13:02:45.332Z,4.83
2018-07-17T13:05:15.175Z,4.70
2018-07-17T13:07:45.092Z,3.90
2018-07-17T13:10:14.865Z,5.33
2018-07-17T13:12:44.651Z,4.97
2018-07-17T13:15:14.455Z,5.30
2018-07-17T13:17:44.278Z,4.40
2018-07-17T13:20:14.215Z,7.80
2018-07-17T13:22:44.061Z,6.70
2018-07-17T13:25:13.904Z,6.20
2018-07-17T13:27:43.777Z,6.77
2018-07-17T13:30:13.611Z,9.33
2018-07-17T13:32:43.451Z,6.67
2018-07-17T13:35:13.364Z,5.87
2018-07-17T13:37:43.213Z,5.07
2018-07-17T13:40:13.070Z,6.80
2018-07-17T13:42:42.885Z,6.67
2018-07-17T13:45:12.762Z,7.23
2018-07-17T13:47:42.494Z,9.27
2018-07-17T13:50:12.393Z,7.00
2018-07-17T13:52:42.329Z,6.63
2018-07-17T13:55:12.305Z,7.73
2018-07-17T13:57:42.172Z,6.30
2018-07-17T14:00:11.905Z,9.13
2018-07-17T14:02:41.795Z,6.13
2018-07-17T14:05:11.623Z,9.90
2018-07-17T14:07:41.499Z,6.60
2018-07-17T14:10:11.319Z,7.73
2018-07-17T14:12:41.204Z,8.60
2018-07-17T14:15:10.571Z,7.13
2018-07-17T14:17:40.369Z,5.00
2018-07-17T14:20:10.152Z,7.20
2018-07-17T14:22:40.101Z,6.00
2018-07-17T14:25:09.908Z,4.83
2018-07-17T14:27:39.739Z,5.30
2018-07-17T14:30:09.593Z,6.33
2018-07-17T14:32:39.393Z,5.93
2018-07-17T14:35:09.290Z,3.87
2018-07-17T14:37:39.063Z,7.47
2018-07-17T14:40:08.989Z,4.60
2018-07-17T14:42:38.896Z,4.00
2018-07-17T14:45:08.908Z,4.83
2018-07-17T14:47:38.717Z,4.90
2018-07-17T14:50:09.130Z,5.30
2018-07-17T14:52:39.024Z,4.60
2018-07-17T14:55:10.212Z,23.30
2018-07-17T14:57:40.689Z,10.13
2018-07-17T15:00:11.201Z,5.50
2018-07-17T15:02:40.980Z,5.40
2018-07-17T15:05:11.143Z,5.23
2018-07-17T15:07:41.003Z,10.73
2018-07-17T15:10:10.788Z,5.93
2018-07-17T15:12:40.579Z,4.00
2018-07-17T15:15:10.399Z,4.13
2018-07-17T15:17:40.156Z,9.03
2018-07-17T15:20:09.960Z,5.13
2018-07-17T15:22:39.807Z,4.27
2018-07-17T15:25:09.573Z,3.50
2018-07-17T15:27:39.334Z,8.30
2018-07-17T15:30:09.201Z,6.57
2018-07-17T15:32:38.952Z,3.90
2018-07-17T15:35:08.767Z,4.53
2018-07-17T15:37:38.465Z,4.07
2018-07-17T15:40:08.313Z,5.30
2018-07-17T15:42:38.123Z,5.83
2018-07-17T15:45:07.964Z,4.23
2018-07-17T15:47:37.716Z,4.70
2018-07-17T15:50:07.544Z,3.47
2018-07-17T15:52:37.347Z,8.57
2018-07-17T15:55:07.067Z,7.77
2018-07-17T15:57:36.876Z,7.93
2018-07-17T16:00:06.928Z,5.50
2018-07-17T16:02:36.699Z,6.40
2018-07-17T16:05:06.529Z,6.20
2018-07-17T16:07:36.414Z,6.00
2018-07-17T16:10:06.210Z,6.30
2018-07-17T16:12:35.939Z,9.63
2018-07-17T16:15:06.672Z,6.53
2018-07-17T16:17:36.675Z,7.10
2018-07-17T16:20:06.930Z,5.60
2018-07-17T16:22:37.026Z,8.23
2018-07-17T16:25:07.026Z,7.80
2018-07-17T16:27:36.783Z,4.67
2018-07-17T16:30:07.333Z,5.57
2018-07-17T16:32:37.103Z,8.07
2018-07-17T16:35:06.867Z,7.10
2018-07-17T16:37:36.639Z,5.97
2018-07-17T16:40:06.415Z,5.87
2018-07-17T16:42:36.171Z,9.50
2018-07-17T16:45:06.079Z,6.07
2018-07-17T16:47:35.899Z,7.27
2018-07-17T16:50:05.906Z,6.73
2018-07-17T16:52:35.646Z,8.23
2018-07-17T16:55:05.785Z,8.97
2018-07-17T16:57:35.595Z,5.63
2018-07-17T17:00:05.768Z,7.07
2018-07-17T17:02:35.584Z,6.43
2018-07-17T17:05:05.435Z,6.67
2018-07-17T17:07:35.246Z,8.00
2018-07-17T17:10:05.085Z,8.27
2018-07-17T17:12:34.817Z,5.33
2018-07-17T17:15:05.093Z,5.47
2018-07-17T17:17:34.949Z,6.40
2018-07-17T17:20:04.825Z,6.20
2018-07-17T17:22:34.635Z,6.57
2018-07-17T17:25:04.367Z,5.43
2018-07-17T17:27:34.182Z,5.80
2018-07-17T17:30:04.083Z,7.90
2018-07-17T17:32:33.992Z,6.47
2018-07-17T17:35:03.797Z,5.43
2018-07-17T17:37:33.574Z,8.17
2018-07-17T17:40:03.391Z,5.13
2018-07-17T17:42:33.095Z,8.77
2018-07-17T17:45:02.986Z,4.73
2018-07-17T17:47:33.007Z,4.10
2018-07-17T17:50:02.787Z,4.07
2018-07-17T17:52:32.515Z,4.27
2018-07-17T17:55:02.267Z,4.40
2018-07-17T17:57:31.979Z,4.43
2018-07-17T18:00:01.784Z,4.97
2018-07-17T18:02:31.518Z,5.47
2018-07-17T18:05:01.292Z,5.90
2018-07-17T18:07:31.031Z,4.60
2018-07-17T18:10:01.032Z,4.60
2018-07-17T18:12:30.752Z,4.33
2018-07-17T18:15:00.515Z,4.70
2018-07-17T18:17:30.280Z,5.03
2018-07-17T18:20:00.056Z,6.53
2018-07-17T18:22:29.851Z,5.30
2018-07-17T18:24:59.671Z,6.67
2018-07-17T18:27:29.377Z,6.90
2018-07-17T18:29:59.147Z,7.10
2018-07-17T18:32:28.919Z,11.17
2018-07-17T18:34:58.723Z,7.63
2018-07-17T18:37:28.538Z,5.50
2018-07-17T18:39:58.388Z,6.33
2018-07-17T18:42:28.175Z,7.47
2018-07-17T18:44:57.979Z,5.93
2018-07-17T18:47:27.848Z,8.97
2018-07-17T18:50:12.312Z,9.17
2018-07-17T18:52:27.480Z,5.37
2018-07-17T18:54:57.202Z,5.97
2018-07-17T18:57:27.021Z,6.37
2018-07-17T18:59:56.901Z,5.93
2018-07-17T19:02:26.667Z,6.93
2018-07-17T19:04:56.363Z,10.00
2018-07-17T19:07:26.172Z,7.77
2018-07-17T19:09:55.875Z,8.20
2018-07-17T19:12:25.626Z,9.23
2018-07-17T19:14:55.471Z,11.20
2018-07-17T19:17:25.315Z,9.63
2018-07-17T19:19:55.124Z,13.60
2018-07-17T19:22:24.887Z,12.83
2018-07-17T19:24:54.680Z,11.07
2018-07-17T19:27:24.497Z,9.73
2018-07-17T19:29:54.251Z,8.07
2018-07-17T19:32:24.092Z,9.67
2018-07-17T19:34:53.835Z,9.47
2018-07-17T19:37:23.643Z,9.13
2018-07-17T19:39:53.404Z,6.97
2018-07-17T19:42:23.189Z,7.57
2018-07-17T19:44:52.934Z,13.03
2018-07-17T19:47:22.778Z,8.83
2018-07-17T19:49:52.576Z,6.83
2018-07-17T19:52:22.331Z,7.23
2018-07-17T19:54:52.119Z,6.77
2018-07-17T19:57:21.871Z,7.17
2018-07-17T19:59:51.638Z,10.53
2018-07-17T20:02:21.395Z,5.53
2018-07-17T20:04:51.185Z,5.67
2018-07-17T20:07:20.935Z,5.13
2018-07-17T20:09:50.671Z,5.13
2018-07-17T20:12:20.487Z,5.57
2018-07-17T20:14:50.195Z,5.20
2018-07-17T20:17:19.992Z,5.50
2018-07-17T20:19:49.703Z,5.47
2018-07-17T20:22:19.504Z,5.20
2018-07-17T20:24:49.328Z,4.97
2018-07-17T20:27:19.176Z,4.83
2018-07-17T20:29:49.000Z,4.80
2018-07-17T20:32:18.865Z,5.33
2018-07-17T20:34:48.687Z,4.97
2018-07-17T20:37:18.435Z,4.93
2018-07-17T20:39:48.190Z,4.23
2018-07-17T20:42:17.999Z,4.50
2018-07-17T20:44:47.747Z,4.10
2018-07-17T20:47:17.464Z,4.37
2018-07-17T20:49:47.363Z,4.30
2018-07-17T20:52:17.224Z,4.63
2018-07-17T20:54:46.984Z,4.00
2018-07-17T20:57:16.729Z,4.50
2018-07-17T20:59:46.459Z,3.53
2018-07-17T21:02:16.227Z,7.27
2018-07-17T21:04:45.981Z,3.50
2018-07-17T21:07:15.763Z,4.17
2018-07-17T21:09:45.521Z,5.47
2018-07-17T21:12:15.330Z,4.43
2018-07-17T21:14:45.160Z,4.50
2018-07-17T21:17:14.907Z,4.43
2018-07-17T21:19:44.695Z,4.20
2018-07-17T21:22:14.552Z,4.00
2018-07-17T21:24:44.444Z,4.57
2018-07-17T21:27:14.168Z,4.47
2018-07-17T21:29:43.931Z,4.40
2018-07-17T21:32:13.723Z,4.83
2018-07-17T21:34:43.531Z,4.87
2018-07-17T21:37:13.262Z,4.40
2018-07-17T21:39:43.285Z,4.70
2018-07-17T21:42:13.039Z,4.57
2018-07-17T21:44:42.937Z,5.67
2018-07-17T21:47:12.861Z,4.53
2018-07-17T21:49:42.631Z,4.93
2018-07-17T21:52:12.374Z,5.30
2018-07-17T21:54:42.083Z,8.93
2018-07-17T21:57:11.835Z,5.73
2018-07-17T21:59:41.644Z,4.93
2018-07-17T22:02:11.499Z,5.90
2018-07-17T22:04:41.312Z,5.57
2018-07-17T22:07:11.024Z,5.60
2018-07-17T22:09:40.850Z,6.43
2018-07-17T22:12:10.596Z,5.90
2018-07-17T22:14:40.316Z,6.30
2018-07-17T22:17:10.147Z,6.50
2018-07-17T22:19:39.979Z,6.20
2018-07-17T22:22:09.704Z,6.73
2018-07-17T22:24:39.443Z,6.93
2018-07-17T22:27:09.143Z,7.30
2018-07-17T22:29:39.009Z,7.20
2018-07-17T22:32:08.752Z,8.00
2018-07-17T22:34:38.518Z,7.40
2018-07-17T22:37:08.306Z,7.87
2018-07-17T22:39:38.076Z,8.67
2018-07-17T22:42:08.040Z,8.30
2018-07-17T22:44:37.743Z,8.77
2018-07-17T22:47:07.499Z,8.40
2018-07-17T22:49:37.291Z,9.60
2018-07-17T22:52:07.117Z,8.97
2018-07-17T22:54:36.920Z,8.57
2018-07-17T22:57:06.667Z,9.80
2018-07-17T22:59:36.484Z,9.27
2018-07-17T23:02:06.365Z,9.63
2018-07-17T23:04:36.124Z,9.53
2018-07-17T23:07:05.923Z,9.90
2018-07-17T23:09:35.727Z,9.63
2018-07-17T23:12:05.467Z,9.90
2018-07-17T23:14:35.307Z,9.60
2018-07-17T23:17:05.024Z,10.27
2018-07-17T23:19:34.806Z,11.10
2018-07-17T23:22:04.588Z,11.37
2018-07-17T23:24:34.299Z,10.57
2018-07-17T23:27:04.124Z,12.13
2018-07-17T23:29:33.914Z,11.63
2018-07-17T23:32:03.748Z,12.17
2018-07-17T23:34:33.487Z,12.97
2018-07-17T23:37:03.233Z,11.40
2018-07-17T23:39:32.957Z,12.17
2018-07-17T23:42:02.723Z,12.00
2018-07-17T23:44:32.724Z,12.40
2018-07-17T23:47:02.488Z,11.83
2018-07-17T23:49:39.252Z,13.03
2018-07-17T23:52:09.184Z,11.57
2018-07-17T23:54:38.904Z,12.03
2018-07-17T23:57:08.744Z,12.00
2018-07-17T23:59:38.588Z,13.10
